Terminal Aerodrome Forecast
Issued by NWS Cleveland, OH

Home | Current Version | Previous Version | Text Only | Print | Product List | Glossary Off
Versions: 1 2 3 4 5 6 7 8 9 10 11 12 13 14 15 16

000
FTUS41 KCLE 212300
TAFERI
TAF
KERI 212329Z 2200/2224 24012G20KT P6SM SCT050 OVC100
     FM220300 24010KT P6SM FEW050 SCT100
     FM221000 25008KT P6SM VCSH BKN050 OVC090
     FM221200 30012KT P6SM BKN090
     FM221700 30012G20KT P6SM FEW040=

USA.gov is the U.S. government's official web portal to all federal, state and local government web resources and services.